createdAt,value
2023-09-14T00:00:28.737Z,29.6
2023-09-14T00:01:29.511Z,29.6
2023-09-14T00:02:30.228Z,29.6
2023-09-14T00:03:31.289Z,29.6
2023-09-14T00:04:32.044Z,29.6
2023-09-14T00:05:32.719Z,29.6
2023-09-14T00:06:33.563Z,29.6
2023-09-14T00:07:34.344Z,29.6
2023-09-14T00:08:35.056Z,29.6
2023-09-14T00:09:35.799Z,29.6
2023-09-14T00:10:36.727Z,29.6
2023-09-14T00:11:37.481Z,29.6
2023-09-14T00:12:38.243Z,29.6
2023-09-14T00:13:39.184Z,29.6
2023-09-14T00:14:39.928Z,29.6
2023-09-14T00:15:40.912Z,29.6
2023-09-14T00:16:41.991Z,29.6
2023-09-14T00:17:42.689Z,29.6
2023-09-14T00:18:43.381Z,29.6
2023-09-14T00:19:44.117Z,29.6
2023-09-14T00:20:44.976Z,29.6
2023-09-14T00:21:45.902Z,29.5
2023-09-14T00:22:46.730Z,29.5
2023-09-14T00:23:47.655Z,29.5
2023-09-14T00:24:48.512Z,29.5
2023-09-14T00:25:49.317Z,29.5
2023-09-14T00:26:50.120Z,29.5
2023-09-14T00:27:50.914Z,29.5
2023-09-14T00:28:51.775Z,29.5
2023-09-14T00:29:52.599Z,29.5
2023-09-14T00:30:53.655Z,29.5
2023-09-14T00:31:54.413Z,29.5
2023-09-14T00:32:55.329Z,29.5
2023-09-14T00:33:56.016Z,29.5
2023-09-14T00:34:56.966Z,29.5
2023-09-14T00:35:57.764Z,29.5
2023-09-14T00:36:58.482Z,29.5
2023-09-14T00:37:59.209Z,29.5
2023-09-14T00:39:00.135Z,29.5
2023-09-14T00:40:00.853Z,29.4
2023-09-14T00:41:01.557Z,29.4
2023-09-14T00:42:02.417Z,29.4
2023-09-14T00:43:03.391Z,29.4
2023-09-14T00:44:04.275Z,29.4
2023-09-14T00:45:05.232Z,29.4
2023-09-14T00:46:06.287Z,29.4
2023-09-14T00:47:06.968Z,29.4
2023-09-14T00:48:07.964Z,29.4
2023-09-14T00:49:08.613Z,29.4
2023-09-14T00:50:09.356Z,29.4
2023-09-14T00:51:10.066Z,29.4
2023-09-14T00:52:10.898Z,29.4
2023-09-14T00:53:11.708Z,29.4
2023-09-14T00:54:12.464Z,29.4
2023-09-14T00:55:13.356Z,29.4
2023-09-14T00:56:14.091Z,29.4
2023-09-14T00:57:15.012Z,29.4
2023-09-14T00:58:15.829Z,29.4
2023-09-14T00:59:16.589Z,29.4
2023-09-14T01:00:17.386Z,29.4
2023-09-14T01:01:18.265Z,29.4
2023-09-14T01:02:18.940Z,29.4
2023-09-14T01:03:19.799Z,29.4
2023-09-14T01:04:20.482Z,29.4
2023-09-14T01:05:21.330Z,29.4
2023-09-14T01:06:21.992Z,29.4
2023-09-14T01:07:22.748Z,29.4
2023-09-14T01:08:23.477Z,29.4
2023-09-14T01:09:24.161Z,29.4
2023-09-14T01:10:24.894Z,29.4
2023-09-14T01:11:25.589Z,29.4
2023-09-14T01:12:26.299Z,29.4
2023-09-14T01:13:26.954Z,29.4
2023-09-14T01:14:27.658Z,29.4
2023-09-14T01:15:28.386Z,29.5
2023-09-14T01:16:29.185Z,29.5
2023-09-14T01:17:30.015Z,29.5
2023-09-14T01:18:30.880Z,29.5
2023-09-14T01:19:31.485Z,29.5
2023-09-14T01:20:32.283Z,29.5
2023-09-14T01:21:32.997Z,29.6
2023-09-14T01:22:33.745Z,29.6
2023-09-14T01:23:34.454Z,29.6
2023-09-14T01:24:35.197Z,29.6
2023-09-14T01:25:35.884Z,29.6
2023-09-14T01:26:36.560Z,29.6
2023-09-14T01:27:37.298Z,29.6
2023-09-14T01:28:38.016Z,29.6
2023-09-14T01:29:38.762Z,29.7
2023-09-14T01:30:39.556Z,29.7
2023-09-14T01:31:40.175Z,29.7
2023-09-14T01:32:40.928Z,29.7
2023-09-14T01:33:41.648Z,29.7
2023-09-14T01:34:42.514Z,29.7
2023-09-14T01:35:43.290Z,29.7
2023-09-14T01:36:44.004Z,29.7
2023-09-14T01:37:44.688Z,29.7
2023-09-14T01:38:45.511Z,29.7
2023-09-14T01:39:46.346Z,29.7
2023-09-14T01:40:47.045Z,29.7
2023-09-14T01:41:47.775Z,29.7
2023-09-14T01:42:48.546Z,29.7
2023-09-14T01:43:49.423Z,29.7
2023-09-14T01:44:50.174Z,29.7
2023-09-14T01:45:50.893Z,29.6
2023-09-14T01:46:51.842Z,29.6
2023-09-14T01:47:52.522Z,29.6
2023-09-14T01:48:53.494Z,29.6
2023-09-14T01:49:54.267Z,29.6
2023-09-14T01:50:54.996Z,29.6
2023-09-14T01:51:55.734Z,29.6
2023-09-14T01:52:56.535Z,29.5
2023-09-14T01:53:57.273Z,29.5
2023-09-14T01:54:58.228Z,29.5
2023-09-14T01:55:58.949Z,29.5
2023-09-14T01:56:59.687Z,29.5
2023-09-14T01:58:00.415Z,29.5
2023-09-14T01:59:01.161Z,29.5
2023-09-14T02:00:01.940Z,29.5
2023-09-14T02:01:05.319Z,29.4
2023-09-14T02:02:06.035Z,29.4
2023-09-14T02:03:06.778Z,29.4
2023-09-14T02:04:07.683Z,29.4
2023-09-14T02:05:08.251Z,29.4
2023-09-14T02:06:08.955Z,29.4
2023-09-14T02:07:09.680Z,29.5
2023-09-14T02:08:10.563Z,29.5
2023-09-14T02:09:11.310Z,29.5
2023-09-14T02:10:12.051Z,29.5
2023-09-14T02:11:12.839Z,29.5
2023-09-14T02:12:13.569Z,29.5
2023-09-14T02:13:14.315Z,29.5
2023-09-14T02:14:15.047Z,29.5
2023-09-14T02:15:15.845Z,29.5
2023-09-14T02:16:16.647Z,29.5
2023-09-14T02:17:17.386Z,29.5
2023-09-14T02:18:18.158Z,29.5
2023-09-14T02:19:18.945Z,29.5
2023-09-14T02:20:19.608Z,29.5
2023-09-14T02:21:20.328Z,29.6
2023-09-14T02:22:21.214Z,29.6
2023-09-14T02:23:21.919Z,29.6
2023-09-14T02:24:22.712Z,29.6
2023-09-14T02:25:23.435Z,29.5
2023-09-14T02:26:24.323Z,29.6
2023-09-14T02:27:25.076Z,29.6
2023-09-14T02:28:25.839Z,29.5
2023-09-14T02:29:26.577Z,29.5
2023-09-14T02:30:27.320Z,29.5
2023-09-14T02:31:28.114Z,29.5
2023-09-14T02:32:28.885Z,29.5
2023-09-14T02:33:29.634Z,29.5
2023-09-14T02:34:30.456Z,29.5
2023-09-14T02:35:31.196Z,29.5
2023-09-14T02:36:31.997Z,29.4
2023-09-14T02:37:32.888Z,29.4
2023-09-14T02:38:33.813Z,29.4
2023-09-14T02:39:34.602Z,29.4
2023-09-14T02:40:35.261Z,29.4
2023-09-14T02:41:35.952Z,29.4
2023-09-14T02:42:36.660Z,29.4
2023-09-14T02:43:37.400Z,29.4
2023-09-14T02:44:38.126Z,29.4
2023-09-14T02:45:38.933Z,29.4
2023-09-14T02:46:39.690Z,29.4
2023-09-14T02:47:40.353Z,29.4
2023-09-14T02:48:41.097Z,29.4
2023-09-14T02:49:41.820Z,29.4
2023-09-14T02:50:42.582Z,29.4
2023-09-14T02:51:43.348Z,29.5
2023-09-14T02:52:44.021Z,29.5
2023-09-14T02:53:44.759Z,29.5
2023-09-14T02:54:45.517Z,29.5
2023-09-14T02:55:46.204Z,29.5
2023-09-14T02:56:46.938Z,29.5
2023-09-14T02:57:47.733Z,29.5
2023-09-14T02:58:48.953Z,29.5
2023-09-14T02:59:49.796Z,29.5
2023-09-14T03:00:50.780Z,29.5
2023-09-14T03:01:51.612Z,29.5
2023-09-14T03:02:52.596Z,29.5
2023-09-14T03:03:53.402Z,29.4
2023-09-14T03:04:54.114Z,29.4
2023-09-14T03:05:54.810Z,29.4
2023-09-14T03:06:55.633Z,29.4
2023-09-14T03:07:56.333Z,29.4
2023-09-14T03:08:57.271Z,29.4
2023-09-14T03:09:58.010Z,29.4
2023-09-14T03:10:58.777Z,29.4
2023-09-14T03:11:59.733Z,29.4
2023-09-14T03:13:00.500Z,29.4
2023-09-14T03:14:01.395Z,29.4
2023-09-14T03:15:02.314Z,29.3
2023-09-14T03:16:03.032Z,29.3
2023-09-14T03:17:03.814Z,29.3
2023-09-14T03:18:04.590Z,29.3
2023-09-14T03:19:05.353Z,29.3
2023-09-14T03:20:06.246Z,29.3
2023-09-14T03:21:07.979Z,29.3
2023-09-14T03:22:08.953Z,29.3
2023-09-14T03:23:09.746Z,29.2
2023-09-14T03:24:10.575Z,29.2
2023-09-14T03:25:11.419Z,29.2
2023-09-14T03:26:12.070Z,29.2
2023-09-14T03:27:12.955Z,29.2
2023-09-14T03:28:13.914Z,29.2
2023-09-14T03:29:14.567Z,29.2
2023-09-14T03:30:15.322Z,29.2
2023-09-14T03:31:16.133Z,29.2
2023-09-14T03:32:16.776Z,29.1
2023-09-14T03:33:17.701Z,29.1
2023-09-14T03:34:18.409Z,29.1
2023-09-14T03:35:19.258Z,29.1
2023-09-14T03:36:20.189Z,29.1
2023-09-14T03:37:21.137Z,29.1
2023-09-14T03:38:22.038Z,29.1
2023-09-14T03:39:22.855Z,29.1
2023-09-14T03:40:23.695Z,29
2023-09-14T03:41:24.409Z,29
2023-09-14T03:42:25.343Z,29
2023-09-14T03:43:26.049Z,29
2023-09-14T03:44:26.802Z,29
2023-09-14T03:45:27.526Z,29
2023-09-14T03:46:28.240Z,29
2023-09-14T03:47:31.878Z,29
2023-09-14T03:48:32.542Z,29
2023-09-14T03:49:33.514Z,29
2023-09-14T03:50:34.245Z,29
2023-09-14T03:51:35.004Z,29
2023-09-14T03:52:40.888Z,29
2023-09-14T03:53:41.603Z,29
2023-09-14T03:54:42.440Z,29
2023-09-14T03:55:43.358Z,29
2023-09-14T03:56:44.074Z,29
2023-09-14T03:57:44.803Z,29
2023-09-14T03:58:45.763Z,29
2023-09-14T03:59:46.250Z,29.1
2023-09-14T04:00:47.048Z,29.1
2023-09-14T04:01:47.937Z,29.1
2023-09-14T04:02:48.652Z,29.1
2023-09-14T04:03:49.565Z,29.1
2023-09-14T04:04:50.368Z,29.1
2023-09-14T04:05:51.159Z,29.1
2023-09-14T04:06:51.913Z,29.1
2023-09-14T04:07:52.604Z,29.1
2023-09-14T04:08:53.361Z,29.1
2023-09-14T04:09:54.156Z,29.1
2023-09-14T04:10:54.917Z,29.1
2023-09-14T04:11:55.718Z,29.2
2023-09-14T04:12:56.584Z,29.1
2023-09-14T04:13:57.278Z,29.1
2023-09-14T04:14:58.022Z,29.1
2023-09-14T04:15:58.811Z,29.2
2023-09-14T04:16:59.745Z,29.1
2023-09-14T04:18:00.547Z,29.2
2023-09-14T04:19:01.287Z,29.2
2023-09-14T04:20:02.034Z,29.2
2023-09-14T04:21:02.776Z,29.2
2023-09-14T04:22:03.511Z,29.2
2023-09-14T04:23:04.218Z,29.2
2023-09-14T04:24:04.926Z,29.2
2023-09-14T04:25:05.724Z,29.2
2023-09-14T04:26:06.342Z,29.2
2023-09-14T04:27:07.250Z,29.2
2023-09-14T04:28:07.841Z,29.2
2023-09-14T04:29:08.580Z,29.3
2023-09-14T04:30:09.749Z,29.3
2023-09-14T04:31:10.407Z,29.3
2023-09-14T04:32:11.115Z,29.3
2023-09-14T04:33:11.815Z,29.3
2023-09-14T04:34:12.578Z,29.3
2023-09-14T04:35:13.242Z,29.3
2023-09-14T04:36:13.968Z,29.3
2023-09-14T04:37:14.710Z,29.3
2023-09-14T04:38:15.443Z,29.3
2023-09-14T04:39:16.124Z,29.3
2023-09-14T04:40:16.892Z,29.4
2023-09-14T04:41:17.568Z,29.4
2023-09-14T04:42:18.304Z,29.4
2023-09-14T04:43:19.045Z,29.4
2023-09-14T04:44:19.800Z,29.4
2023-09-14T04:45:20.572Z,29.4
2023-09-14T04:46:21.344Z,29.4
2023-09-14T04:47:22.013Z,29.4
2023-09-14T04:48:22.769Z,29.3
2023-09-14T04:49:23.536Z,29.3
2023-09-14T04:50:24.282Z,29.3
2023-09-14T04:51:25.080Z,29.3
2023-09-14T04:52:25.794Z,29.3
2023-09-14T04:53:26.857Z,29.3
2023-09-14T04:54:27.533Z,29.3
2023-09-14T04:55:28.251Z,29.3
2023-09-14T04:56:29.007Z,29.3
2023-09-14T04:57:29.727Z,29.2
2023-09-14T04:58:30.434Z,29.3
2023-09-14T04:59:31.288Z,29.2
2023-09-14T05:00:32.069Z,29.2
2023-09-14T05:01:32.886Z,29.3
2023-09-14T05:02:33.607Z,29.3
2023-09-14T05:03:34.415Z,29.2
2023-09-14T05:04:35.172Z,29.2
2023-09-14T05:05:35.869Z,29.2
2023-09-14T05:06:36.773Z,29.2
2023-09-14T05:07:37.488Z,29.2
2023-09-14T05:08:38.238Z,29.2
2023-09-14T05:09:39.009Z,29.2
2023-09-14T05:10:39.756Z,29.2
2023-09-14T05:11:40.537Z,29.2
2023-09-14T05:12:41.422Z,29.2
2023-09-14T05:13:42.111Z,29.2
2023-09-14T05:14:42.792Z,29.2
2023-09-14T05:15:43.501Z,29.2
2023-09-14T05:16:44.355Z,29.2
2023-09-14T05:17:45.047Z,29.2
2023-09-14T05:18:46.167Z,29.2
2023-09-14T05:19:46.656Z,29.2
2023-09-14T05:20:47.464Z,29.2
2023-09-14T05:21:48.202Z,29.2
2023-09-14T05:22:48.898Z,29.2
2023-09-14T05:23:49.739Z,29.2
2023-09-14T05:24:50.619Z,29.2
2023-09-14T05:25:51.387Z,29.2
2023-09-14T05:26:52.096Z,29.2
2023-09-14T05:27:52.835Z,29.2
2023-09-14T05:28:53.552Z,29.1
2023-09-14T05:29:54.297Z,29.1
2023-09-14T05:30:55.030Z,29.1
2023-09-14T05:31:55.865Z,29.1
2023-09-14T05:32:56.567Z,29.1
2023-09-14T05:33:57.267Z,29
2023-09-14T05:34:58.047Z,29.1
2023-09-14T05:35:58.863Z,29.1
2023-09-14T05:36:59.710Z,29.1
2023-09-14T05:38:00.529Z,29.1
2023-09-14T05:39:01.291Z,29.1
2023-09-14T05:40:02.104Z,29.1
2023-09-14T05:41:02.734Z,29.1
2023-09-14T05:42:03.456Z,29.1
2023-09-14T05:43:04.207Z,29.1
2023-09-14T05:44:04.938Z,29.1
2023-09-14T05:45:05.644Z,29.1
2023-09-14T05:46:06.438Z,29.1
2023-09-14T05:47:07.240Z,29.1
2023-09-14T05:48:08.187Z,29.1
2023-09-14T05:49:08.956Z,29.1
2023-09-14T05:50:09.711Z,29.1
2023-09-14T05:51:10.422Z,29.1
2023-09-14T05:52:11.285Z,29.2
2023-09-14T05:53:11.939Z,29.1
2023-09-14T05:54:12.738Z,29.1
2023-09-14T05:55:13.660Z,29.1
2023-09-14T05:56:14.395Z,29.1
2023-09-14T05:57:15.143Z,29.1
2023-09-14T05:58:15.885Z,29.1
2023-09-14T05:59:25.974Z,29.1
2023-09-14T06:00:17.581Z,29.1
2023-09-14T06:01:18.393Z,29.1
2023-09-14T06:02:19.212Z,29.1
2023-09-14T06:03:20.081Z,29.1
2023-09-14T06:04:20.888Z,29.1
2023-09-14T06:05:24.911Z,29.1
2023-09-14T06:06:22.221Z,29.1
2023-09-14T06:07:22.953Z,29.1
2023-09-14T06:08:23.698Z,29.1
2023-09-14T06:09:24.524Z,29.1
2023-09-14T06:10:25.224Z,29.1
2023-09-14T06:11:25.904Z,29.1
2023-09-14T06:12:26.651Z,29.1
2023-09-14T06:13:27.374Z,29.1
2023-09-14T06:14:28.042Z,29.1
2023-09-14T06:15:28.853Z,29.1
2023-09-14T06:16:29.642Z,29.1
2023-09-14T06:17:30.439Z,29.1
2023-09-14T06:18:31.124Z,29.1
2023-09-14T06:19:32.143Z,29
2023-09-14T06:20:32.878Z,29.1
2023-09-14T06:21:33.790Z,29.1
2023-09-14T06:22:34.817Z,29.1
2023-09-14T06:23:35.739Z,29.1
2023-09-14T06:24:36.633Z,29.1
2023-09-14T06:25:37.389Z,29.1
2023-09-14T06:26:38.129Z,29.1
2023-09-14T06:27:39.043Z,29.1
2023-09-14T06:28:39.729Z,29.1
2023-09-14T06:29:40.511Z,29
2023-09-14T06:30:41.300Z,29
2023-09-14T06:31:42.205Z,28.9
2023-09-14T06:32:43.105Z,28.9
2023-09-14T06:33:44.123Z,28.9
2023-09-14T06:34:44.595Z,28.9
2023-09-14T06:35:45.458Z,28.8
2023-09-14T06:36:46.312Z,28.8
2023-09-14T06:37:47.022Z,28.8
2023-09-14T06:38:47.819Z,28.8
2023-09-14T06:39:48.651Z,28.7
2023-09-14T06:40:49.476Z,28.7
2023-09-14T06:41:50.301Z,28.7
2023-09-14T06:42:51.190Z,28.7
2023-09-14T06:43:51.896Z,28.7
2023-09-14T06:44:52.793Z,28.7
2023-09-14T06:45:53.558Z,28.7
2023-09-14T06:46:54.228Z,28.7
2023-09-14T06:47:55.083Z,28.7
2023-09-14T06:48:55.824Z,28.7
2023-09-14T06:49:56.504Z,28.7
2023-09-14T06:50:57.211Z,28.8
2023-09-14T06:51:58.173Z,28.8
2023-09-14T06:52:58.886Z,28.8
2023-09-14T06:55:06.433Z,28.7
2023-09-14T06:56:07.397Z,28.9
2023-09-14T06:57:08.112Z,29.3
2023-09-14T06:58:08.876Z,29.2
2023-09-14T07:10:03.976Z,27.8
2023-09-14T07:11:04.773Z,27.8
2023-09-14T07:12:05.391Z,27.8
2023-09-14T07:13:06.290Z,27.8
2023-09-14T07:23:43.482Z,28.6
2023-09-14T07:25:39.581Z,28.7
2023-09-14T07:26:40.421Z,28.8
2023-09-14T07:27:41.171Z,28.8
2023-09-14T07:28:41.897Z,28.7
2023-09-14T07:29:42.643Z,28.8
2023-09-14T07:30:43.428Z,28.8
2023-09-14T07:31:44.203Z,28.7
2023-09-14T07:32:44.997Z,28.8
2023-09-14T07:33:46.138Z,28.7
2023-09-14T07:34:46.563Z,28.8
2023-09-14T07:36:43.396Z,28.8
2023-09-14T07:37:44.541Z,28.9
2023-09-14T07:38:45.274Z,29
2023-09-14T07:39:46.046Z,29.1
2023-09-14T07:40:46.823Z,29.2
2023-09-14T07:41:47.573Z,29.2
2023-09-14T07:44:07.813Z,29.3
2023-09-14T07:45:08.631Z,29.3
2023-09-14T07:46:09.464Z,29.5
2023-09-14T07:47:10.191Z,29.5
2023-09-14T07:48:13.820Z,29.4
2023-09-14T07:49:14.597Z,29.3
2023-09-14T07:50:15.262Z,29.2
2023-09-14T07:51:15.988Z,29.2
2023-09-14T07:52:16.916Z,29.1
2023-09-14T07:53:17.552Z,29
2023-09-14T07:54:18.313Z,28.8
2023-09-14T07:55:19.146Z,28.7
2023-09-14T07:56:19.858Z,28.6
2023-09-14T07:57:20.665Z,28.6
2023-09-14T07:58:21.480Z,28.5
2023-09-14T07:59:22.419Z,28.4
2023-09-14T08:00:23.179Z,28.3
2023-09-14T08:01:23.979Z,28.3
2023-09-14T08:02:24.707Z,28.2
2023-09-14T08:03:25.426Z,28.1
2023-09-14T08:04:26.269Z,28
2023-09-14T08:05:26.973Z,28
2023-09-14T08:06:27.742Z,28
2023-09-14T08:07:28.502Z,27.9
2023-09-14T08:08:29.215Z,27.9
2023-09-14T08:09:29.910Z,27.8
2023-09-14T08:10:30.950Z,27.8
2023-09-14T08:11:31.769Z,27.8
2023-09-14T08:12:32.560Z,27.8
2023-09-14T08:13:33.364Z,27.7
2023-09-14T08:14:34.080Z,27.7
2023-09-14T08:15:34.863Z,27.6
2023-09-14T08:16:36.057Z,27.6
2023-09-14T08:17:36.750Z,27.6
2023-09-14T08:18:37.557Z,27.6
2023-09-14T08:19:38.476Z,27.5
2023-09-14T08:20:39.179Z,27.5
2023-09-14T08:21:40.028Z,27.5
2023-09-14T08:22:40.967Z,27.4
2023-09-14T08:23:41.769Z,27.4
2023-09-14T08:24:42.702Z,27.4
2023-09-14T08:25:43.242Z,27.4
2023-09-14T08:26:44.051Z,27.3
2023-09-14T08:27:44.876Z,27.3
2023-09-14T08:28:45.550Z,27.3
2023-09-14T08:29:46.269Z,27.2
2023-09-14T08:30:47.001Z,27.3
2023-09-14T08:31:47.920Z,27.3
2023-09-14T08:33:13.133Z,27.4
2023-09-14T08:34:11.310Z,27.4
2023-09-14T08:35:12.038Z,27.4
2023-09-14T08:36:13.006Z,27.5
2023-09-14T08:37:13.979Z,27.5
2023-09-14T08:38:14.645Z,27.6
2023-09-14T08:39:17.046Z,27.5
2023-09-14T08:40:17.030Z,27.6
2023-09-14T10:56:53.544Z,27.1
2023-09-14T10:57:54.286Z,27.2
2023-09-14T10:58:55.132Z,27.3
2023-09-14T10:59:55.872Z,27.4
2023-09-14T11:00:57.268Z,27.5
2023-09-14T11:02:04.106Z,27.6
2023-09-14T11:03:59.457Z,27.8
2023-09-14T11:05:04.018Z,27.9
2023-09-14T11:06:01.367Z,28
2023-09-14T11:07:02.055Z,28.1
2023-09-14T11:08:02.859Z,28.3
2023-09-14T11:09:04.110Z,28.4
2023-09-14T11:10:05.017Z,28.5
2023-09-14T11:11:05.325Z,28.6
2023-09-14T11:12:06.009Z,28.6
2023-09-14T11:13:06.716Z,28.7
2023-09-14T11:14:07.527Z,28.8
2023-09-14T11:15:08.277Z,28.9
2023-09-14T11:16:09.273Z,29
2023-09-14T11:17:11.053Z,29
2023-09-14T11:18:10.784Z,29
2023-09-14T11:19:11.970Z,29.1
2023-09-14T11:20:13.820Z,29.2
2023-09-14T11:21:14.803Z,29.2
2023-09-14T11:22:15.156Z,29.3
2023-09-14T11:23:14.866Z,29.3
2023-09-14T11:24:17.697Z,29.4
2023-09-14T11:25:24.823Z,29.4
2023-09-14T11:26:21.555Z,29.4
2023-09-14T11:27:18.158Z,29.5
2023-09-14T11:28:18.898Z,29.5
2023-09-14T11:29:20.155Z,29.5
2023-09-14T11:30:20.703Z,29.6
2023-09-14T11:31:22.085Z,29.6
2023-09-14T11:32:24.375Z,29.6
2023-09-14T11:33:23.149Z,29.6
2023-09-14T11:34:24.758Z,29.6
2023-09-14T11:35:27.896Z,29.6
2023-09-14T11:36:26.892Z,29.6
2023-09-14T11:37:29.172Z,29.7
2023-09-14T11:38:29.411Z,29.7
2023-09-14T11:39:31.028Z,29.8
2023-09-14T11:40:30.903Z,29.8
2023-09-14T11:41:33.066Z,29.8
2023-09-14T11:42:34.448Z,29.8
2023-09-14T11:45:41.122Z,29.8
2023-09-14T11:46:40.250Z,29.8
2023-09-14T11:47:46.237Z,29.8
2023-09-14T11:49:43.572Z,29.9
2023-09-14T11:50:44.407Z,29.9
2023-09-14T11:51:45.226Z,29.9
2023-09-14T11:52:45.974Z,29.9
2023-09-14T11:53:46.985Z,29.9
2023-09-14T11:54:47.603Z,29.9
2023-09-14T11:55:48.428Z,29.9
2023-09-14T11:56:49.173Z,30
2023-09-14T11:57:49.978Z,30
2023-09-14T11:58:50.702Z,30
2023-09-14T11:59:51.431Z,30
2023-09-14T12:00:52.405Z,30
2023-09-14T12:01:53.177Z,30
2023-09-14T12:02:53.922Z,30
2023-09-14T12:03:54.704Z,30
2023-09-14T12:04:55.563Z,30
2023-09-14T12:05:57.654Z,30
2023-09-14T12:06:57.240Z,30
2023-09-14T12:07:57.953Z,30
2023-09-14T12:08:58.730Z,30
2023-09-14T12:09:59.452Z,30
2023-09-14T12:11:00.419Z,30
2023-09-14T12:12:01.138Z,30.1
2023-09-14T12:13:01.906Z,30.1
2023-09-14T12:14:02.601Z,30.1
2023-09-14T12:15:03.459Z,30.1
2023-09-14T12:16:04.163Z,30.1
2023-09-14T12:17:04.905Z,30.1
2023-09-14T12:18:05.637Z,30.2
2023-09-14T12:19:06.271Z,30.2
2023-09-14T12:20:06.985Z,30.2
2023-09-14T12:21:07.706Z,30.2
2023-09-14T12:22:08.574Z,30.2
2023-09-14T12:23:09.378Z,30.2
2023-09-14T12:24:10.114Z,30.2
2023-09-14T12:25:10.830Z,30.3
2023-09-14T12:26:11.544Z,30.3
2023-09-14T12:27:12.293Z,30.2
2023-09-14T12:28:13.051Z,30.2
2023-09-14T12:29:13.763Z,30.2
2023-09-14T12:30:14.486Z,30.3
2023-09-14T12:31:15.847Z,30.3
2023-09-14T12:32:16.040Z,30.2
2023-09-14T12:33:16.977Z,30.2
2023-09-14T12:34:17.901Z,30.2
2023-09-14T12:35:18.806Z,30.3
2023-09-14T12:36:19.819Z,30.2
2023-09-14T12:37:20.487Z,30.2
2023-09-14T12:38:23.102Z,30.2
2023-09-14T12:39:22.267Z,30.1
2023-09-14T12:40:22.974Z,30.2
2023-09-14T12:41:23.853Z,30.2
2023-09-14T12:42:24.499Z,30.1
2023-09-14T12:43:27.715Z,30.1
2023-09-14T12:44:26.033Z,30.1
2023-09-14T12:45:27.016Z,30.1
2023-09-14T12:46:30.328Z,30.1
2023-09-14T12:47:31.196Z,30.1
2023-09-14T12:48:31.915Z,30.1
2023-09-14T12:49:32.680Z,30.1
2023-09-14T12:50:33.432Z,30.1
2023-09-14T12:51:34.193Z,30.1
2023-09-14T12:52:34.992Z,30.1
2023-09-14T12:53:35.916Z,30.1
2023-09-14T12:54:36.785Z,30.1
2023-09-14T12:55:37.443Z,30.1
2023-09-14T12:56:38.172Z,30.1
2023-09-14T12:57:39.069Z,30.1
2023-09-14T12:58:39.798Z,30.1
2023-09-14T12:59:40.504Z,30
2023-09-14T13:00:41.229Z,30
2023-09-14T13:01:41.980Z,30.1
2023-09-14T13:02:42.941Z,30.1
2023-09-14T13:03:45.869Z,30.1
2023-09-14T13:04:50.985Z,30.1
2023-09-14T13:05:52.339Z,30.1
2023-09-14T13:06:55.762Z,30.1
2023-09-14T13:19:17.953Z,30.3
2023-09-14T13:20:18.777Z,30.3
2023-09-14T13:21:19.530Z,30.4
2023-09-14T13:22:20.462Z,30.4
2023-09-14T13:23:21.415Z,30.4
2023-09-14T13:24:22.165Z,30.4
2023-09-14T13:25:22.874Z,30.4
2023-09-14T13:26:23.724Z,30.4
2023-09-14T13:27:24.591Z,30.4
2023-09-14T13:28:25.392Z,30.4
2023-09-14T13:29:26.094Z,30.4
2023-09-14T13:30:26.921Z,30.4
2023-09-14T13:31:27.806Z,30.3
2023-09-14T13:32:28.721Z,30.3
2023-09-14T13:33:29.510Z,30.3
2023-09-14T13:34:30.386Z,30.3
2023-09-14T14:18:11.364Z,30.5
2023-09-14T14:19:12.040Z,30.5
2023-09-14T14:20:12.828Z,30.5
2023-09-14T14:21:13.780Z,30.5
2023-09-14T14:22:14.496Z,30.5
2023-09-14T14:23:15.335Z,30.5
2023-09-14T14:24:16.367Z,30.5
2023-09-14T14:25:17.075Z,30.5
2023-09-14T14:26:18.038Z,30.5
2023-09-14T14:27:18.757Z,30.5
2023-09-14T14:28:19.668Z,30.5
2023-09-14T14:29:20.440Z,30.4
2023-09-14T14:30:21.163Z,30.4
2023-09-14T14:31:22.284Z,30.4
2023-09-14T14:32:22.925Z,30.4
2023-09-14T14:33:23.891Z,30.4
2023-09-14T14:34:24.540Z,30.4
2023-09-14T14:35:25.359Z,30.4
2023-09-14T14:36:26.120Z,30.4
2023-09-14T14:37:26.843Z,30.3
2023-09-14T14:38:28.646Z,30.3
2023-09-14T14:39:29.444Z,30.3
2023-09-14T14:40:49.727Z,30.3
2023-09-14T14:41:38.088Z,30.3
2023-09-14T14:42:32.050Z,30.2
2023-09-14T14:43:32.780Z,30.2
2023-09-14T14:44:33.594Z,30.3
2023-09-14T14:45:34.437Z,30.3
2023-09-14T14:46:35.398Z,30.2
2023-09-14T14:47:36.293Z,30.2
2023-09-14T14:48:37.134Z,30.2
2023-09-14T14:49:37.733Z,30.2
2023-09-14T14:50:38.505Z,30.2
2023-09-14T14:51:39.378Z,30.2
2023-09-14T14:52:40.112Z,30.2
2023-09-14T14:53:40.930Z,30.2
2023-09-14T14:54:41.847Z,30.2
2023-09-14T14:55:42.390Z,30.2
2023-09-14T14:56:43.209Z,30.2
2023-09-14T14:57:44.275Z,30.2
2023-09-14T14:58:45.683Z,30.2
2023-09-14T14:59:45.923Z,30.2
2023-09-14T15:00:46.808Z,30.2
2023-09-14T15:01:47.458Z,30.2
2023-09-14T15:02:48.180Z,30.2
2023-09-14T15:03:49.028Z,30.2
2023-09-14T15:04:49.718Z,30.2
2023-09-14T15:05:50.482Z,30.2
2023-09-14T15:06:51.247Z,30.2
2023-09-14T15:07:51.988Z,30.1
2023-09-14T15:08:52.937Z,30.1
2023-09-14T15:09:53.691Z,30.2
2023-09-14T15:10:54.763Z,30.1
2023-09-14T15:11:55.499Z,30.2
2023-09-14T15:12:56.416Z,30.1
2023-09-14T15:13:57.169Z,30.1
2023-09-14T15:14:58.067Z,30.1
2023-09-14T15:15:59.021Z,30.1
2023-09-14T15:16:59.714Z,30.1
2023-09-14T15:18:00.544Z,30.1
2023-09-14T15:19:01.413Z,30.1
2023-09-14T15:20:02.198Z,30.1
2023-09-14T15:21:03.013Z,30.1
2023-09-14T15:22:03.949Z,30.1
2023-09-14T15:23:04.686Z,30.1
2023-09-14T15:24:05.600Z,30.1
2023-09-14T15:25:06.579Z,30.1
2023-09-14T15:26:07.461Z,30.1
2023-09-14T15:27:08.300Z,30.1
2023-09-14T15:28:09.011Z,30.1
2023-09-14T15:29:09.736Z,30.1
2023-09-14T15:30:10.482Z,30.1
2023-09-14T15:31:11.488Z,30.1
2023-09-14T15:32:12.272Z,30.1
2023-09-14T15:33:13.193Z,30.1
2023-09-14T15:34:14.112Z,30.1
2023-09-14T15:35:14.733Z,30.1
2023-09-14T15:36:15.510Z,30.1
2023-09-14T15:37:16.443Z,30.1
2023-09-14T15:38:17.149Z,30.1
2023-09-14T15:39:18.095Z,30.1
2023-09-14T15:40:18.805Z,30.1
2023-09-14T15:41:19.646Z,30.1
2023-09-14T15:42:20.409Z,30.1
2023-09-14T15:43:21.296Z,30.1
2023-09-14T15:44:22.100Z,30.1
2023-09-14T15:45:22.836Z,30.1
2023-09-14T15:46:23.726Z,30.1
2023-09-14T15:47:24.411Z,30.1
2023-09-14T15:48:25.165Z,30.1
2023-09-14T15:49:25.975Z,30.1
2023-09-14T15:50:26.586Z,30.1
2023-09-14T15:51:27.390Z,30.1
2023-09-14T15:52:28.108Z,30.1
2023-09-14T15:53:29.021Z,30.1
2023-09-14T15:54:29.775Z,30.1
2023-09-14T15:55:32.534Z,30.1
2023-09-14T15:56:31.630Z,30.1
2023-09-14T15:57:32.726Z,30.1
2023-09-14T15:58:33.192Z,30.1
2023-09-14T15:59:34.212Z,30
2023-09-14T16:00:35.159Z,30
2023-09-14T16:01:35.875Z,30
2023-09-14T16:02:36.705Z,30
2023-09-14T16:03:37.578Z,30
2023-09-14T16:04:38.454Z,30
2023-09-14T16:05:39.265Z,30
2023-09-14T16:06:40.338Z,30
2023-09-14T16:07:41.969Z,30
2023-09-14T16:08:42.790Z,30
2023-09-14T16:09:43.742Z,30
2023-09-14T16:10:44.629Z,30
2023-09-14T16:11:45.464Z,30
2023-09-14T16:12:46.367Z,30
2023-09-14T16:13:47.311Z,30
2023-09-14T16:14:48.145Z,30
2023-09-14T16:15:49.161Z,30
2023-09-14T16:16:49.824Z,30
2023-09-14T16:17:50.499Z,30
2023-09-14T16:18:51.285Z,30
2023-09-14T16:19:52.163Z,30
2023-09-14T16:20:52.726Z,30
2023-09-14T16:21:53.486Z,30
2023-09-14T16:22:54.328Z,30
2023-09-14T16:23:55.068Z,30
2023-09-14T16:24:55.881Z,30
2023-09-14T16:25:56.609Z,30
2023-09-14T16:26:57.451Z,30
2023-09-14T16:27:58.333Z,30
2023-09-14T16:28:58.997Z,30
2023-09-14T16:29:59.743Z,30
2023-09-14T16:31:00.461Z,30
2023-09-14T16:32:01.351Z,30
2023-09-14T16:33:02.194Z,30
2023-09-14T16:34:02.929Z,30
2023-09-14T16:35:03.671Z,30
2023-09-14T16:36:04.333Z,30
2023-09-14T16:37:05.297Z,30
2023-09-14T16:38:06.104Z,30
2023-09-14T16:39:06.839Z,30
2023-09-14T16:40:07.580Z,30
2023-09-14T16:41:08.498Z,30
2023-09-14T16:42:09.621Z,30
2023-09-14T16:43:10.530Z,30
2023-09-14T16:44:11.290Z,30
2023-09-14T16:45:12.036Z,30
2023-09-14T16:46:12.869Z,30
2023-09-14T16:47:13.577Z,30
2023-09-14T16:48:14.324Z,30
2023-09-14T16:49:15.027Z,30.1
2023-09-14T16:50:15.791Z,30.1
2023-09-14T16:51:16.518Z,30.1
2023-09-14T16:52:17.325Z,30.1
2023-09-14T16:53:18.131Z,30.1
2023-09-14T16:54:18.956Z,30.1
2023-09-14T16:55:19.724Z,30.1
2023-09-14T16:56:20.490Z,30.1
2023-09-14T16:57:21.207Z,30.1
2023-09-14T16:58:21.918Z,30.1
2023-09-14T16:59:22.702Z,30.1
2023-09-14T17:00:23.444Z,30.1
2023-09-14T17:01:24.150Z,30.2
2023-09-14T17:02:25.073Z,30.1
2023-09-14T17:03:25.806Z,30.1
2023-09-14T17:04:26.607Z,30.2
2023-09-14T17:05:27.664Z,30.2
2023-09-14T17:06:28.306Z,30.2
2023-09-14T17:07:29.024Z,30.2
2023-09-14T17:08:29.786Z,30.2
2023-09-14T17:09:30.549Z,30.2
2023-09-14T17:10:31.292Z,30.2
2023-09-14T17:11:32.091Z,30.2
2023-09-14T17:12:32.870Z,30.2
2023-09-14T17:13:33.656Z,30.2
2023-09-14T17:14:34.535Z,30.2
2023-09-14T17:15:35.465Z,30.2